createdAt,value
2023-05-21T00:01:34.247Z,102075.63
2023-05-21T00:04:00.825Z,102068.53
2023-05-21T00:06:27.571Z,102067.00
2023-05-21T00:08:54.151Z,102069.81
2023-05-21T00:11:20.559Z,102061.69
2023-05-21T00:13:46.936Z,102065.34
2023-05-21T00:16:13.401Z,102067.19
2023-05-21T00:18:39.800Z,102073.69
2023-05-21T00:21:06.668Z,102068.06
2023-05-21T00:23:33.125Z,102066.44
2023-05-21T00:26:00.107Z,102068.38
2023-05-21T00:28:26.537Z,102067.19
2023-05-21T00:30:52.960Z,102058.28
2023-05-21T00:33:21.952Z,102061.19
2023-05-21T00:35:48.421Z,102055.56
2023-05-21T00:38:14.892Z,102057.13
2023-05-21T00:40:41.416Z,102051.19
2023-05-21T00:43:10.656Z,102054.88
2023-05-21T00:45:37.885Z,102045.97
2023-05-21T00:48:06.135Z,102056.81
2023-05-21T00:50:33.043Z,102045.97
2023-05-21T00:52:59.705Z,102039.47
2023-05-21T00:55:26.422Z,102048.69
2023-05-21T00:57:53.160Z,102039.66
2023-05-21T01:00:20.211Z,102036.19
2023-05-21T01:02:47.455Z,102037.84
2023-05-21T01:05:15.432Z,102037.06
2023-05-21T01:07:42.276Z,102034.16
2023-05-21T01:10:13.312Z,102037.44
2023-05-21T01:12:41.450Z,102036.47
2023-05-21T01:15:08.919Z,102038.41
2023-05-21T01:17:35.564Z,102032.22
2023-05-21T01:20:09.978Z,102029.81
2023-05-21T01:22:41.791Z,102029.69
2023-05-21T01:25:08.338Z,102026.50
2023-05-21T01:27:34.739Z,102022.44
2023-05-21T01:30:01.198Z,102021.84
2023-05-21T01:32:41.196Z,102026.56
2023-05-21T01:35:20.665Z,102022.13
2023-05-21T01:37:55.716Z,102023.38
2023-05-21T01:40:38.177Z,102023.47
2023-05-21T01:43:07.008Z,102018.25
2023-05-21T01:45:36.420Z,102016.00
2023-05-21T01:48:05.735Z,102018.44
2023-05-21T01:50:32.435Z,102026.09
2023-05-21T01:53:01.002Z,102022.22
2023-05-21T01:55:28.176Z,102019.50
2023-05-21T01:57:55.926Z,102026.00
2023-05-21T02:00:24.597Z,102024.06
2023-05-21T02:02:51.889Z,102024.34
2023-05-21T02:05:18.664Z,102015.53
2023-05-21T02:07:46.157Z,102028.31
2023-05-21T02:10:13.083Z,102010.28
2023-05-21T02:12:39.617Z,102013.00
2023-05-21T02:15:06.665Z,102024.97
2023-05-21T02:17:36.145Z,102016.84
2023-05-21T02:20:22.583Z,102018.50
2023-05-21T02:22:49.410Z,102014.28
2023-05-21T02:25:18.408Z,102014.47
2023-05-21T02:27:46.742Z,102012.16
2023-05-21T02:30:15.061Z,102023.00
2023-05-21T02:32:43.331Z,102015.72
2023-05-21T02:35:11.692Z,102022.69
2023-05-21T02:37:39.591Z,102017.38
2023-05-21T02:40:07.286Z,102024.91
2023-05-21T02:42:34.392Z,102019.50
2023-05-21T02:45:00.799Z,102020.56
2023-05-21T02:47:27.231Z,102015.69
2023-05-21T02:49:53.952Z,102014.84
2023-05-21T02:52:23.815Z,102011.84
2023-05-21T02:54:50.318Z,102017.25
2023-05-21T02:57:19.742Z,102010.00
2023-05-21T02:59:46.262Z,102016.56
2023-05-21T03:02:12.947Z,102010.88
2023-05-21T03:04:46.163Z,102006.84
2023-05-21T03:07:14.423Z,102006.25
2023-05-21T03:09:42.116Z,102017.00
2023-05-21T03:12:10.415Z,102003.28
2023-05-21T03:14:37.272Z,102008.78
2023-05-21T03:17:06.056Z,102012.91
2023-05-21T03:19:36.715Z,102007.56
2023-05-21T03:22:04.544Z,102000.47
2023-05-21T03:24:31.663Z,102002.31
2023-05-21T03:26:59.062Z,101997.94
2023-05-21T03:29:25.432Z,101989.81
2023-05-21T03:31:53.854Z,102003.06
2023-05-21T03:34:20.755Z,101994.94
2023-05-21T03:36:47.696Z,101984.59
2023-05-21T03:39:14.509Z,101989.25
2023-05-21T03:41:41.211Z,101993.59
2023-05-21T03:44:07.929Z,101990.97
2023-05-21T03:46:34.448Z,101986.53
2023-05-21T03:49:01.020Z,101990.97
2023-05-21T03:51:27.668Z,101983.72
2023-05-21T03:53:54.086Z,101982.66
2023-05-21T03:56:21.606Z,101981.78
2023-05-21T03:58:48.026Z,101982.94
2023-05-21T04:01:14.592Z,101980.84
2023-05-21T04:03:41.266Z,101992.53
2023-05-21T04:06:10.188Z,101984.41
2023-05-21T04:08:38.009Z,101986.25
2023-05-21T04:11:04.658Z,101988.66
2023-05-21T04:13:31.156Z,101990.66
2023-05-21T04:15:57.611Z,101986.22
2023-05-21T04:18:25.845Z,101987.97
2023-05-21T04:20:52.916Z,101983.88
2023-05-21T04:23:19.516Z,101991.91
2023-05-21T04:25:50.503Z,101993.56
2023-05-21T04:28:20.009Z,101990.06
2023-05-21T04:30:47.837Z,101993.47
2023-05-21T04:33:17.956Z,101989.97
2023-05-21T04:35:47.206Z,101996.28
2023-05-21T04:38:14.086Z,101991.81
2023-05-21T04:40:40.604Z,101991.81
2023-05-21T04:43:08.109Z,101994.34
2023-05-21T04:45:34.675Z,101987.97
2023-05-21T04:48:01.235Z,101999.56
2023-05-21T04:50:30.572Z,101989.88
2023-05-21T04:52:58.682Z,101998.69
2023-05-21T04:55:25.223Z,101998.78
2023-05-21T04:57:52.703Z,101997.50
2023-05-21T05:00:19.848Z,101993.75
2023-05-21T05:02:46.663Z,101998.97
2023-05-21T05:05:13.171Z,102004.22
2023-05-21T05:07:39.569Z,102007.00
2023-05-21T05:10:06.521Z,102010.41
2023-05-21T05:12:32.939Z,101999.47
2023-05-21T05:14:59.384Z,102007.31
2023-05-21T05:17:25.824Z,102006.16
2023-05-21T05:19:53.177Z,101997.94
2023-05-21T05:22:19.694Z,102001.53
2023-05-21T05:24:46.104Z,101996.91
2023-05-21T05:27:12.505Z,101996.13
2023-05-21T05:29:38.936Z,101994.91
2023-05-21T05:32:05.874Z,102003.44
2023-05-21T05:34:32.362Z,101992.41
2023-05-21T05:36:58.832Z,101994.81
2023-05-21T05:39:25.485Z,102003.72
2023-05-21T05:41:51.898Z,101989.31
2023-05-21T05:44:18.304Z,102002.88
2023-05-21T05:46:44.796Z,101997.34
2023-05-21T05:49:11.171Z,101993.47
2023-05-21T05:51:37.723Z,101994.34
2023-05-21T05:54:04.187Z,101994.34
2023-05-21T05:56:30.629Z,101996.19
2023-05-21T05:58:58.877Z,101994.25
2023-05-21T06:01:26.256Z,101994.44
2023-05-21T06:03:53.154Z,101989.03
2023-05-21T06:06:20.048Z,101995.16
2023-05-21T06:08:46.750Z,101987.66
2023-05-21T06:11:17.029Z,101984.34
2023-05-21T06:13:43.531Z,101978.56
2023-05-21T06:16:10.163Z,101983.13
2023-05-21T06:18:36.692Z,101981.66
2023-05-21T06:21:03.225Z,101983.78
2023-05-21T06:23:32.053Z,101972.22
2023-05-21T06:25:58.630Z,101979.28
2023-05-21T06:28:24.985Z,101978.59
2023-05-21T06:30:51.419Z,101976.72
2023-05-21T06:33:18.051Z,101972.66
2023-05-21T06:35:44.607Z,101965.94
2023-05-21T06:38:10.979Z,101982.44
2023-05-21T06:40:37.415Z,101980.59
2023-05-21T06:43:05.206Z,101975.81
2023-05-21T06:45:31.807Z,101976.81
2023-05-21T06:47:58.236Z,101970.41
2023-05-21T06:50:24.744Z,101966.91
2023-05-21T06:52:51.227Z,101974.75
2023-05-21T06:55:17.754Z,101966.59
2023-05-21T06:57:44.146Z,101965.63
2023-05-21T07:00:12.321Z,101973.97
2023-05-21T07:02:38.869Z,101961.16
2023-05-21T07:05:05.808Z,101966.22
2023-05-21T07:07:32.183Z,101961.56
2023-05-21T07:09:58.584Z,101964.19
2023-05-21T07:12:24.957Z,101964.09
2023-05-21T07:14:51.386Z,101967.47
2023-05-21T07:17:17.881Z,101959.34
2023-05-21T07:19:44.323Z,101965.47
2023-05-21T07:22:12.532Z,101961.44
2023-05-21T07:24:38.909Z,101964.63
2023-05-21T07:27:17.773Z,101963.53
2023-05-21T07:29:50.911Z,101967.34
2023-05-21T07:32:17.397Z,101968.22
2023-05-21T07:34:43.835Z,101966.09
2023-05-21T07:37:10.377Z,101966.81
2023-05-21T07:39:37.789Z,101967.69
2023-05-21T07:42:04.382Z,101976.28
2023-05-21T07:44:31.853Z,101969.63
2023-05-21T07:46:58.261Z,101974.78
2023-05-21T07:49:24.634Z,101968.22
2023-05-21T07:51:51.128Z,101966.22
2023-05-21T07:54:17.633Z,101973.94
2023-05-21T07:56:44.032Z,101962.63
2023-05-21T07:59:12.747Z,101960.09
2023-05-21T08:01:40.988Z,101948.84
2023-05-21T08:04:07.878Z,101951.03
2023-05-21T08:06:34.516Z,101950.81
2023-05-21T08:09:04.930Z,101950.47
2023-05-21T08:11:31.406Z,101942.50
2023-05-21T08:13:57.794Z,101941.19
2023-05-21T08:16:24.288Z,101938.78
2023-05-21T08:18:51.425Z,101941.06
2023-05-21T08:21:17.999Z,101936.84
2023-05-21T08:23:44.565Z,101931.69
2023-05-21T08:26:11.839Z,101934.22
2023-05-21T08:28:38.949Z,101940.03
2023-05-21T08:31:05.499Z,101935.53
2023-05-21T08:33:31.981Z,101941.34
2023-05-21T08:35:58.804Z,101943.00
2023-05-21T08:38:25.198Z,101952.94
2023-05-21T08:40:53.701Z,101940.72
2023-05-21T08:43:50.171Z,101932.44
2023-05-21T08:46:23.247Z,101936.19
2023-05-21T08:48:55.133Z,101933.03
2023-05-21T08:51:23.715Z,101940.25
2023-05-21T08:53:51.056Z,101928.88
2023-05-21T08:56:18.216Z,101934.38
2023-05-21T08:58:46.736Z,101925.16
2023-05-21T09:01:13.364Z,101935.34
2023-05-21T09:03:41.185Z,101942.03
2023-05-21T09:06:10.866Z,101932.09
2023-05-21T09:08:42.876Z,101948.22
2023-05-21T09:11:09.315Z,101942.63
2023-05-21T09:13:39.207Z,101942.84
2023-05-21T09:16:06.992Z,101929.78
2023-05-21T09:18:33.385Z,101929.66
2023-05-21T09:21:23.491Z,101930.88
2023-05-21T09:23:57.351Z,101922.03
2023-05-21T09:26:24.729Z,101920.44
2023-05-21T09:28:52.278Z,101920.84
2023-05-21T09:31:18.749Z,101921.91
2023-05-21T09:33:48.426Z,101914.81
2023-05-21T09:36:14.918Z,101913.72
2023-05-21T09:38:41.513Z,101912.41
2023-05-21T09:41:07.964Z,101919.59
2023-05-21T09:43:34.732Z,101913.25
2023-05-21T09:46:02.179Z,101909.22
2023-05-21T09:48:44.092Z,101902.97
2023-05-21T09:51:18.673Z,101903.16
2023-05-21T09:53:45.147Z,101894.81
2023-05-21T09:56:11.648Z,101895.63
2023-05-21T09:58:38.218Z,101884.09
2023-05-21T10:01:04.686Z,101890.59
2023-05-21T10:03:32.152Z,101886.19
2023-05-21T10:06:00.463Z,101879.94
2023-05-21T10:08:30.626Z,101884.97
2023-05-21T10:10:57.123Z,101876.19
2023-05-21T10:13:23.860Z,101873.59
2023-05-21T10:16:01.661Z,101876.50
2023-05-21T10:18:29.686Z,101868.28
2023-05-21T10:20:56.516Z,101878.50
2023-05-21T10:23:24.653Z,101874.91
2023-05-21T10:25:51.638Z,101869.28
2023-05-21T10:28:19.185Z,101861.78
2023-05-21T10:30:46.469Z,101865.72
2023-05-21T10:33:16.706Z,101867.78
2023-05-21T10:35:46.815Z,101857.97
2023-05-21T10:38:14.365Z,101855.38
2023-05-21T10:40:41.056Z,101852.06
2023-05-21T10:43:13.901Z,101854.50
2023-05-21T10:45:50.637Z,101844.97
2023-05-21T10:48:44.702Z,101859.66
2023-05-21T10:51:34.117Z,101850.72
2023-05-21T10:54:18.830Z,101859.81
2023-05-21T10:57:27.213Z,101859.09
2023-05-21T10:59:54.209Z,101851.75
2023-05-21T11:02:21.039Z,101848.72
2023-05-21T11:04:58.795Z,101844.69
2023-05-21T11:07:56.385Z,101847.09
2023-05-21T11:10:32.746Z,101853.22
2023-05-21T11:13:24.338Z,101847.38
2023-05-21T11:16:01.359Z,101843.50
2023-05-21T11:18:31.053Z,101841.06
2023-05-21T11:21:07.640Z,101835.72
2023-05-21T11:24:01.816Z,101839.81
2023-05-21T11:26:55.311Z,101832.50
2023-05-21T11:29:33.542Z,101818.22
2023-05-21T11:32:05.375Z,101822.09
2023-05-21T11:34:48.234Z,101816.94
2023-05-21T11:37:23.131Z,101815.59
2023-05-21T11:39:51.465Z,101804.66
2023-05-21T11:42:34.029Z,101809.44
2023-05-21T11:45:02.865Z,101797.38
2023-05-21T11:47:29.864Z,101805.38
2023-05-21T11:49:58.057Z,101795.63
2023-05-21T11:52:25.517Z,101799.16
2023-05-21T11:54:57.267Z,101793.03
2023-05-21T11:57:31.907Z,101791.72
2023-05-21T12:00:00.189Z,101782.78
2023-05-21T12:02:28.662Z,101785.00
2023-05-21T12:04:59.980Z,101787.94
2023-05-21T12:07:31.458Z,101784.66
2023-05-21T12:09:58.238Z,101776.47
2023-05-21T12:12:28.190Z,101772.16
2023-05-21T12:14:59.700Z,101776.78
2023-05-21T12:17:26.707Z,101764.59
2023-05-21T12:19:55.324Z,101765.94
2023-05-21T12:22:24.442Z,101764.16
2023-05-21T12:24:51.448Z,101757.13
2023-05-21T12:27:18.365Z,101760.56
2023-05-21T12:29:46.561Z,101750.88
2023-05-21T12:32:14.460Z,101754.88
2023-05-21T12:34:44.522Z,101748.19
2023-05-21T12:37:20.236Z,101754.84
2023-05-21T12:39:48.748Z,101746.91
2023-05-21T12:42:15.869Z,101748.25
2023-05-21T12:44:47.628Z,101751.44
2023-05-21T12:47:14.783Z,101749.22
2023-05-21T12:49:48.072Z,101756.09
2023-05-21T12:52:18.406Z,101750.53
2023-05-21T12:54:46.067Z,101744.22
2023-05-21T12:57:17.875Z,101743.66
2023-05-21T12:59:52.202Z,101739.66
2023-05-21T13:02:27.060Z,101752.31
2023-05-21T13:05:00.850Z,101753.63
2023-05-21T13:07:29.875Z,101749.78
2023-05-21T13:09:57.089Z,101746.16
2023-05-21T13:12:25.084Z,101753.50
2023-05-21T13:14:52.921Z,101747.19
2023-05-21T13:17:20.302Z,101746.34
2023-05-21T13:20:12.524Z,101741.84
2023-05-21T13:22:46.824Z,101734.34
2023-05-21T13:25:21.529Z,101739.69
2023-05-21T13:27:49.455Z,101735.63
2023-05-21T13:30:15.987Z,101730.50
2023-05-21T13:32:43.194Z,101720.56
2023-05-21T13:35:11.375Z,101723.50
2023-05-21T13:37:39.729Z,101709.97
2023-05-21T13:40:10.794Z,101727.25
2023-05-21T13:42:38.484Z,101717.59
2023-05-21T13:45:06.387Z,101711.69
2023-05-21T13:47:33.360Z,101720.00
2023-05-21T13:50:00.283Z,101715.97
2023-05-21T13:52:26.712Z,101713.25
2023-05-21T13:54:53.438Z,101711.69
2023-05-21T13:57:19.991Z,101710.03
2023-05-21T13:59:46.539Z,101717.72
2023-05-21T14:02:13.431Z,101717.53
2023-05-21T14:04:39.868Z,101717.16
2023-05-21T14:07:07.251Z,101719.81
2023-05-21T14:09:34.120Z,101720.19
2023-05-21T14:12:01.402Z,101718.63
2023-05-21T14:14:27.998Z,101728.50
2023-05-21T14:16:54.524Z,101729.75
2023-05-21T14:19:21.071Z,101724.47
2023-05-21T14:21:47.514Z,101727.44
2023-05-21T14:24:13.945Z,101725.03
2023-05-21T14:26:41.293Z,101728.19
2023-05-21T14:29:08.330Z,101727.19
2023-05-21T14:31:35.182Z,101724.13
2023-05-21T14:34:03.057Z,101723.81
2023-05-21T14:36:30.125Z,101715.59
2023-05-21T14:38:57.023Z,101716.75
2023-05-21T14:41:27.280Z,101717.50
2023-05-21T14:43:53.930Z,101714.06
2023-05-21T14:46:20.631Z,101701.56
2023-05-21T14:48:47.300Z,101698.69
2023-05-21T14:51:14.522Z,101703.28
2023-05-21T14:53:41.135Z,101703.09
2023-05-21T14:56:07.952Z,101698.13
2023-05-21T14:58:34.496Z,101703.75
2023-05-21T15:01:01.834Z,101701.84
2023-05-21T15:03:28.434Z,101698.13
2023-05-21T15:05:54.978Z,101698.19
2023-05-21T15:08:21.497Z,101689.66
2023-05-21T15:10:48.025Z,101686.19
2023-05-21T15:13:14.459Z,101685.53
2023-05-21T15:15:41.155Z,101678.63
2023-05-21T15:18:07.752Z,101677.72
2023-05-21T15:20:34.153Z,101677.78
2023-05-21T15:23:15.294Z,101674.34
2023-05-21T15:25:43.552Z,101675.97
2023-05-21T15:28:10.118Z,101675.94
2023-05-21T15:30:36.524Z,101669.34
2023-05-21T15:33:02.961Z,101680.13
2023-05-21T15:35:32.772Z,101684.56
2023-05-21T15:37:59.502Z,101675.28
2023-05-21T15:40:27.233Z,101676.03
2023-05-21T15:42:54.142Z,101684.00
2023-05-21T15:45:20.970Z,101678.13
2023-05-21T15:47:47.541Z,101677.41
2023-05-21T15:50:14.061Z,101672.59
2023-05-21T15:52:41.462Z,101673.59
2023-05-21T15:55:08.328Z,101666.22
2023-05-21T15:57:34.884Z,101680.31
2023-05-21T16:00:01.334Z,101667.53
2023-05-21T16:02:27.804Z,101667.53
2023-05-21T16:04:54.372Z,101662.31
2023-05-21T16:07:22.254Z,101663.28
2023-05-21T16:09:48.663Z,101664.13
2023-05-21T16:12:15.164Z,101664.28
2023-05-21T16:14:41.597Z,101668.31
2023-05-21T16:17:08.049Z,101666.56
2023-05-21T16:19:34.614Z,101668.50
2023-05-21T16:22:01.886Z,101677.56
2023-05-21T16:24:28.319Z,101679.28
2023-05-21T16:26:54.785Z,101673.03
2023-05-21T16:29:22.097Z,101682.03
2023-05-21T16:31:48.856Z,101678.50
2023-05-21T16:34:15.756Z,101677.78
2023-05-21T16:36:42.513Z,101681.81
2023-05-21T16:39:08.968Z,101675.41
2023-05-21T16:41:35.472Z,101679.88
2023-05-21T16:44:02.011Z,101676.53
2023-05-21T16:46:28.494Z,101681.25
2023-05-21T16:48:54.951Z,101676.16
2023-05-21T16:51:21.423Z,101677.19
2023-05-21T16:53:48.256Z,101680.00
2023-05-21T16:56:14.719Z,101683.91
2023-05-21T16:58:41.197Z,101674.09
2023-05-21T17:01:07.698Z,101673.41
2023-05-21T17:03:34.358Z,101676.78
2023-05-21T17:06:00.864Z,101677.75
2023-05-21T17:08:27.311Z,101680.38
2023-05-21T17:10:55.411Z,101683.38
2023-05-21T17:13:23.108Z,101686.19
2023-05-21T17:15:51.136Z,101685.97
2023-05-21T17:18:17.772Z,101680.69
2023-05-21T17:20:44.600Z,101682.91
2023-05-21T17:23:11.870Z,101686.19
2023-05-21T17:25:39.019Z,101687.38
2023-05-21T17:28:06.113Z,101685.00
2023-05-21T17:30:32.683Z,101686.16
2023-05-21T17:32:59.414Z,101690.56
2023-05-21T17:35:25.949Z,101680.28
2023-05-21T17:37:53.528Z,101685.19
2023-05-21T17:40:21.306Z,101682.91
2023-05-21T17:42:47.992Z,101690.13
2023-05-21T17:45:14.509Z,101680.03
2023-05-21T17:47:41.001Z,101679.63
2023-05-21T17:50:08.137Z,101678.34
2023-05-21T17:52:34.534Z,101679.47
2023-05-21T17:55:01.837Z,101688.16
2023-05-21T17:57:28.839Z,101693.22
2023-05-21T17:59:55.511Z,101689.63
2023-05-21T18:02:23.448Z,101692.25
2023-05-21T18:04:50.006Z,101699.59
2023-05-21T18:07:16.776Z,101702.47
2023-05-21T18:09:43.245Z,101691.97
2023-05-21T18:12:09.710Z,101690.69
2023-05-21T18:14:36.177Z,101695.81
2023-05-21T18:17:02.859Z,101696.09
2023-05-21T18:19:30.391Z,101695.81
2023-05-21T18:21:57.056Z,101690.78
2023-05-21T18:24:23.505Z,101700.56
2023-05-21T18:26:49.883Z,101699.53
2023-05-21T18:29:16.261Z,101690.31
2023-05-21T18:31:45.225Z,101698.94
2023-05-21T18:34:11.791Z,101701.53
2023-05-21T18:36:41.184Z,101695.47
2023-05-21T18:39:08.999Z,101697.00
2023-05-21T18:41:35.992Z,101700.06
2023-05-21T18:44:02.768Z,101696.13
2023-05-21T18:46:29.504Z,101698.50
2023-05-21T18:48:56.369Z,101704.59
2023-05-21T18:51:22.862Z,101697.38
2023-05-21T18:53:49.557Z,101694.72
2023-05-21T18:56:15.972Z,101695.25
2023-05-21T18:58:42.440Z,101697.56
2023-05-21T19:01:08.905Z,101699.38
2023-05-21T19:03:35.480Z,101700.31
2023-05-21T19:06:01.984Z,101702.31
2023-05-21T19:08:28.413Z,101698.84
2023-05-21T19:10:55.045Z,101703.13
2023-05-21T19:13:22.378Z,101697.47
2023-05-21T19:15:48.990Z,101717.47
2023-05-21T19:18:17.269Z,101701.25
2023-05-21T19:20:43.782Z,101703.41
2023-05-21T19:23:10.510Z,101702.19
2023-05-21T19:25:37.010Z,101706.44
2023-05-21T19:28:03.529Z,101705.38
2023-05-21T19:30:29.952Z,101711.59
2023-05-21T19:32:56.572Z,101700.41
2023-05-21T19:35:23.051Z,101701.47
2023-05-21T19:37:49.823Z,101704.59
2023-05-21T19:40:17.676Z,101709.06
2023-05-21T19:42:44.549Z,101710.59
2023-05-21T19:45:11.695Z,101710.00
2023-05-21T19:47:40.990Z,101712.13
2023-05-21T19:50:08.136Z,101719.94
2023-05-21T19:52:34.548Z,101724.94
2023-05-21T19:55:04.758Z,101723.53
2023-05-21T19:57:32.568Z,101721.56
2023-05-21T19:59:59.422Z,101727.25
2023-05-21T20:02:26.583Z,101724.78
2023-05-21T20:04:56.671Z,101726.16
2023-05-21T20:07:23.505Z,101736.34
2023-05-21T20:09:50.422Z,101732.09
2023-05-21T20:12:16.870Z,101726.53
2023-05-21T20:14:46.652Z,101725.06
2023-05-21T20:17:14.394Z,101728.75
2023-05-21T20:19:41.088Z,101737.56
2023-05-21T20:22:07.516Z,101737.06
2023-05-21T20:24:33.888Z,101738.06
2023-05-21T20:27:01.626Z,101741.13
2023-05-21T20:29:28.768Z,101737.03
2023-05-21T20:31:55.294Z,101745.97
2023-05-21T20:34:21.862Z,101743.22
2023-05-21T20:36:48.566Z,101740.25
2023-05-21T20:39:15.654Z,101739.88
2023-05-21T20:41:44.604Z,101738.03
2023-05-21T20:44:11.804Z,101731.19
2023-05-21T20:46:41.113Z,101734.34
2023-05-21T20:49:07.707Z,101737.31
2023-05-21T20:51:34.173Z,101735.31
2023-05-21T20:54:00.888Z,101723.69
2023-05-21T20:56:40.771Z,101728.38
2023-05-21T20:59:10.426Z,101718.66
2023-05-21T21:01:37.822Z,101721.88
2023-05-21T21:04:05.053Z,101719.91
2023-05-21T21:06:31.748Z,101724.03
2023-05-21T21:08:58.224Z,101717.94
2023-05-21T21:11:24.687Z,101722.38
2023-05-21T21:13:51.736Z,101719.16
2023-05-21T21:16:18.220Z,101716.66
2023-05-21T21:18:46.084Z,101722.47
2023-05-21T21:21:12.745Z,101720.72
2023-05-21T21:23:39.163Z,101719.22
2023-05-21T21:26:05.625Z,101720.53
2023-05-21T21:28:31.999Z,101714.00
2023-05-21T21:30:58.481Z,101714.66
2023-05-21T21:33:26.560Z,101709.66
2023-05-21T21:35:53.089Z,101709.03
2023-05-21T21:38:19.625Z,101705.16
2023-05-21T21:40:46.020Z,101710.47
2023-05-21T21:43:12.648Z,101708.50
2023-05-21T21:45:39.027Z,101708.13
2023-05-21T21:48:05.838Z,101700.94
2023-05-21T21:50:32.398Z,101702.38
2023-05-21T21:52:59.826Z,101715.22
2023-05-21T21:55:26.493Z,101709.25
2023-05-21T21:57:52.971Z,101706.97
2023-05-21T22:00:19.675Z,101710.75
2023-05-21T22:02:48.955Z,101717.41
2023-05-21T22:05:15.506Z,101716.97
2023-05-21T22:07:42.657Z,101713.97
2023-05-21T22:10:09.525Z,101712.34
2023-05-21T22:12:35.973Z,101709.97
2023-05-21T22:15:05.396Z,101707.25
2023-05-21T22:17:32.676Z,101702.81
2023-05-21T22:19:59.520Z,101698.88
2023-05-21T22:22:26.207Z,101708.78
2023-05-21T22:24:53.749Z,101706.28
2023-05-21T22:27:20.613Z,101700.84
2023-05-21T22:29:47.160Z,101700.22
2023-05-21T22:32:13.639Z,101695.53
2023-05-21T22:34:40.047Z,101701.19
2023-05-21T22:37:06.494Z,101687.59
2023-05-21T22:39:32.884Z,101696.75
2023-05-21T22:41:59.565Z,101696.97
2023-05-21T22:44:26.185Z,101689.91
2023-05-21T22:46:52.752Z,101686.44
2023-05-21T22:49:19.803Z,101693.63
2023-05-21T22:51:46.346Z,101686.66
2023-05-21T22:54:12.890Z,101695.03
2023-05-21T22:56:39.350Z,101695.34
2023-05-21T22:59:05.973Z,101699.91
2023-05-21T23:01:33.069Z,101699.91
2023-05-21T23:03:59.533Z,101698.84
2023-05-21T23:06:25.929Z,101711.13
2023-05-21T23:08:52.354Z,101706.56
2023-05-21T23:11:18.854Z,101708.94
2023-05-21T23:13:45.320Z,101706.34
2023-05-21T23:16:12.520Z,101728.72
2023-05-21T23:18:40.846Z,101749.34
2023-05-21T23:21:07.333Z,101754.91
2023-05-21T23:23:33.809Z,101760.97
2023-05-21T23:26:00.243Z,101760.09
2023-05-21T23:28:26.702Z,101748.03
2023-05-21T23:30:53.165Z,101754.44
2023-05-21T23:33:19.867Z,101756.22
2023-05-21T23:35:46.235Z,101748.25
2023-05-21T23:38:12.735Z,101739.47
2023-05-21T23:40:39.305Z,101734.06
2023-05-21T23:43:05.999Z,101734.69
2023-05-21T23:45:32.511Z,101732.22
2023-05-21T23:47:58.968Z,101718.19
2023-05-21T23:50:25.919Z,101705.59
2023-05-21T23:52:52.333Z,101695.59
2023-05-21T23:55:18.759Z,101701.47
2023-05-21T23:57:45.217Z,101707.75
